createdAt,value
2023-05-19T00:01:28.351Z,14.13
2023-05-19T00:03:59.133Z,14.11
2023-05-19T00:06:31.953Z,14.07
2023-05-19T00:09:03.778Z,14.02
2023-05-19T00:11:32.156Z,13.96
2023-05-19T00:14:00.943Z,13.92
2023-05-19T00:16:31.354Z,13.88
2023-05-19T00:19:02.062Z,13.86
2023-05-19T00:21:31.836Z,13.84
2023-05-19T00:24:00.207Z,13.84
2023-05-19T00:26:28.613Z,13.83
2023-05-19T00:29:01.184Z,13.86
2023-05-19T00:31:30.335Z,13.85
2023-05-19T00:33:58.784Z,13.82
2023-05-19T00:36:27.273Z,13.83
2023-05-19T00:38:57.560Z,13.84
2023-05-19T00:41:26.477Z,13.87
2023-05-19T00:43:55.320Z,13.89
2023-05-19T00:46:23.996Z,13.91
2023-05-19T00:48:52.664Z,13.90
2023-05-19T00:51:22.007Z,13.89
2023-05-19T00:53:52.289Z,13.86
2023-05-19T00:56:21.976Z,13.84
2023-05-19T00:58:52.037Z,13.84
2023-05-19T01:01:21.938Z,13.82
2023-05-19T01:03:51.620Z,13.80
2023-05-19T01:06:21.106Z,13.80
2023-05-19T01:08:51.748Z,13.79
2023-05-19T01:11:20.210Z,13.78
2023-05-19T01:13:48.797Z,13.81
2023-05-19T01:16:43.940Z,13.80
2023-05-19T01:19:30.892Z,13.81
2023-05-19T01:22:28.034Z,13.82
2023-05-19T01:25:08.095Z,13.81
2023-05-19T01:28:22.729Z,13.80
2023-05-19T01:30:56.335Z,13.77
2023-05-19T01:33:25.306Z,13.74
2023-05-19T01:35:56.888Z,13.72
2023-05-19T01:38:26.340Z,13.73
2023-05-19T01:40:56.458Z,13.75
2023-05-19T01:43:27.459Z,13.73
2023-05-19T01:45:58.748Z,13.67
2023-05-19T01:48:30.065Z,13.64
2023-05-19T01:50:59.514Z,13.62
2023-05-19T01:53:27.688Z,13.61
2023-05-19T01:55:57.611Z,13.62
2023-05-19T01:58:47.468Z,13.60
2023-05-19T02:01:31.463Z,13.57
2023-05-19T02:04:18.744Z,13.56
2023-05-19T02:06:59.681Z,13.57
2023-05-19T02:09:38.991Z,13.59
2023-05-19T02:12:29.026Z,13.60
2023-05-19T02:15:11.704Z,13.59
2023-05-19T02:17:43.210Z,13.59
2023-05-19T02:20:11.987Z,13.58
2023-05-19T02:22:40.740Z,13.57
2023-05-19T02:25:09.820Z,13.60
2023-05-19T02:27:39.738Z,13.60
2023-05-19T02:30:09.942Z,13.56
2023-05-19T02:32:38.561Z,13.52
2023-05-19T02:35:07.380Z,13.46
2023-05-19T02:37:35.963Z,13.46
2023-05-19T02:40:05.183Z,13.46
2023-05-19T02:42:33.448Z,13.43
2023-05-19T02:45:01.875Z,13.42
2023-05-19T02:47:30.557Z,13.40
2023-05-19T02:49:59.035Z,13.45
2023-05-19T02:52:27.299Z,13.46
2023-05-19T02:54:55.581Z,13.42
2023-05-19T02:57:24.338Z,13.38
2023-05-19T02:59:53.057Z,13.37
2023-05-19T03:02:21.481Z,13.38
2023-05-19T03:04:50.354Z,13.40
2023-05-19T03:07:18.820Z,13.41
2023-05-19T03:09:47.217Z,13.45
2023-05-19T03:12:15.492Z,13.47
2023-05-19T03:14:44.591Z,13.44
2023-05-19T03:17:12.733Z,13.42
2023-05-19T03:19:41.676Z,13.42
2023-05-19T03:22:10.260Z,13.41
2023-05-19T03:24:39.688Z,13.39
2023-05-19T03:27:09.079Z,13.40
2023-05-19T03:29:38.488Z,13.42
2023-05-19T03:32:07.433Z,13.41
2023-05-19T03:34:35.875Z,13.42
2023-05-19T03:37:04.660Z,13.43
2023-05-19T03:39:33.159Z,13.44
2023-05-19T03:42:01.532Z,13.44
2023-05-19T03:44:30.233Z,13.44
2023-05-19T03:47:01.182Z,13.50
2023-05-19T03:50:09.986Z,13.60
2023-05-19T03:53:04.856Z,13.60
2023-05-19T03:55:39.422Z,13.62
2023-05-19T03:58:07.872Z,13.63
2023-05-19T04:00:38.099Z,13.64
2023-05-19T04:03:06.534Z,13.70
2023-05-19T04:05:35.476Z,13.78
2023-05-19T04:08:06.974Z,13.78
2023-05-19T04:10:39.345Z,13.77
2023-05-19T04:13:07.598Z,13.74
2023-05-19T04:15:36.629Z,13.71
2023-05-19T04:18:04.986Z,13.72
2023-05-19T04:20:34.814Z,13.78
2023-05-19T04:23:04.817Z,13.86
2023-05-19T04:25:33.920Z,13.92
2023-05-19T04:28:03.287Z,13.94
2023-05-19T04:30:32.635Z,14.00
2023-05-19T04:33:01.499Z,14.04
2023-05-19T04:35:30.653Z,14.09
2023-05-19T04:38:00.222Z,14.16
2023-05-19T04:40:31.651Z,14.21
2023-05-19T04:43:02.406Z,14.24
2023-05-19T04:45:33.344Z,14.17
2023-05-19T04:48:03.364Z,14.12
2023-05-19T04:50:32.800Z,14.15
2023-05-19T04:53:01.751Z,14.16
2023-05-19T04:55:30.291Z,14.16
2023-05-19T04:57:59.188Z,14.22
2023-05-19T05:00:27.777Z,14.25
2023-05-19T05:03:00.934Z,14.28
2023-05-19T05:05:31.092Z,14.42
2023-05-19T05:07:59.807Z,14.47
2023-05-19T05:10:29.787Z,14.51
2023-05-19T05:12:58.891Z,14.54
2023-05-19T05:15:29.022Z,14.59
2023-05-19T05:17:58.087Z,14.61
2023-05-19T05:20:27.477Z,14.62
2023-05-19T05:22:57.881Z,14.58
2023-05-19T05:25:27.475Z,14.57
2023-05-19T05:27:56.069Z,14.58
2023-05-19T05:30:24.959Z,14.62
2023-05-19T05:33:03.946Z,14.67
2023-05-19T05:35:41.195Z,14.88
2023-05-19T05:38:12.013Z,15.14
2023-05-19T05:40:41.118Z,15.18
2023-05-19T05:43:09.744Z,15.26
2023-05-19T05:45:42.908Z,15.28
2023-05-19T05:48:15.266Z,15.38
2023-05-19T05:50:45.609Z,15.44
2023-05-19T05:53:20.911Z,15.35
2023-05-19T05:55:51.787Z,15.31
2023-05-19T05:58:22.826Z,15.36
2023-05-19T06:00:53.766Z,15.33
2023-05-19T06:03:24.876Z,15.32
2023-05-19T06:06:02.195Z,15.46
2023-05-19T06:08:33.552Z,15.50
2023-05-19T06:11:10.946Z,15.49
2023-05-19T06:13:51.851Z,15.50
2023-05-19T06:16:35.996Z,15.59
2023-05-19T06:19:08.555Z,15.81
2023-05-19T06:21:37.346Z,16.00
2023-05-19T06:24:07.077Z,16.17
2023-05-19T06:26:35.755Z,16.32
2023-05-19T06:29:10.004Z,16.40
2023-05-19T06:31:39.043Z,16.32
2023-05-19T06:34:16.676Z,16.27
2023-05-19T06:36:45.274Z,16.18
2023-05-19T06:39:14.044Z,16.17
2023-05-19T06:41:42.574Z,16.25
2023-05-19T06:44:11.038Z,16.36
2023-05-19T06:46:39.441Z,16.34
2023-05-19T06:49:07.892Z,16.22
2023-05-19T06:51:39.150Z,16.24
2023-05-19T06:54:07.542Z,16.28
2023-05-19T06:56:36.626Z,16.32
2023-05-19T06:59:05.013Z,16.35
2023-05-19T07:01:36.762Z,16.36
2023-05-19T07:04:06.038Z,16.46
2023-05-19T07:06:34.322Z,16.53
2023-05-19T07:09:05.345Z,16.74
2023-05-19T07:11:35.009Z,16.96
2023-05-19T07:14:03.511Z,17.15
2023-05-19T07:16:32.776Z,17.23
2023-05-19T07:19:01.377Z,17.26
2023-05-19T07:21:30.100Z,17.34
2023-05-19T07:23:59.912Z,17.32
2023-05-19T07:26:29.728Z,17.39
2023-05-19T07:28:58.084Z,17.47
2023-05-19T07:31:26.758Z,17.61
2023-05-19T07:33:55.294Z,17.68
2023-05-19T07:36:23.474Z,17.89
2023-05-19T07:38:51.995Z,18.06
2023-05-19T07:41:21.898Z,18.16
2023-05-19T07:43:50.155Z,18.37
2023-05-19T07:46:18.847Z,18.39
2023-05-19T07:48:47.472Z,18.41
2023-05-19T07:51:16.441Z,18.44
2023-05-19T07:53:44.853Z,18.59
2023-05-19T07:56:13.304Z,18.69
2023-05-19T07:58:42.306Z,18.72
2023-05-19T08:01:10.791Z,18.72
2023-05-19T08:03:39.331Z,18.71
2023-05-19T08:06:07.660Z,18.75
2023-05-19T08:08:36.148Z,18.78
2023-05-19T08:11:05.160Z,18.67
2023-05-19T08:13:34.814Z,18.63
2023-05-19T08:16:04.169Z,18.68
2023-05-19T08:18:32.656Z,18.67
2023-05-19T08:21:03.943Z,18.68
2023-05-19T08:23:32.707Z,18.80
2023-05-19T08:26:02.378Z,18.79
2023-05-19T08:28:31.122Z,18.96
2023-05-19T08:30:59.467Z,19.22
2023-05-19T08:33:28.392Z,19.31
2023-05-19T08:35:58.430Z,19.36
2023-05-19T08:38:26.903Z,19.58
2023-05-19T08:40:58.130Z,19.84
2023-05-19T08:43:26.742Z,20.04
2023-05-19T08:45:55.737Z,20.02
2023-05-19T08:48:24.364Z,20.03
2023-05-19T08:50:59.666Z,20.28
2023-05-19T08:53:36.895Z,20.56
2023-05-19T08:56:11.576Z,20.52
2023-05-19T08:58:41.569Z,20.55
2023-05-19T09:01:13.849Z,20.87
2023-05-19T09:03:43.499Z,21.23
2023-05-19T09:06:15.160Z,21.57
2023-05-19T09:08:44.050Z,22.03
2023-05-19T09:11:12.880Z,22.35
2023-05-19T09:13:41.147Z,22.45
2023-05-19T09:16:09.740Z,22.64
2023-05-19T09:18:41.266Z,22.90
2023-05-19T09:21:11.388Z,23.22
2023-05-19T09:23:39.871Z,23.52
2023-05-19T09:26:08.341Z,23.80
2023-05-19T09:28:38.108Z,24.03
2023-05-19T09:31:10.195Z,24.11
2023-05-19T09:33:45.930Z,24.10
2023-05-19T09:36:14.835Z,24.14
2023-05-19T09:38:43.037Z,24.53
2023-05-19T09:41:14.885Z,24.96
2023-05-19T09:43:56.403Z,25.30
2023-05-19T09:46:28.728Z,25.58
2023-05-19T09:48:58.715Z,25.82
2023-05-19T09:51:26.895Z,26.16
2023-05-19T09:53:55.301Z,26.42
2023-05-19T09:56:26.215Z,26.71
2023-05-19T09:58:54.815Z,26.90
2023-05-19T10:01:23.631Z,26.97
2023-05-19T10:03:53.768Z,27.12
2023-05-19T10:06:22.569Z,27.44
2023-05-19T10:08:53.028Z,27.94
2023-05-19T10:11:23.698Z,28.13
2023-05-19T10:13:52.400Z,28.39
2023-05-19T10:16:23.316Z,28.71
2023-05-19T10:18:53.242Z,29.18
2023-05-19T10:21:21.652Z,29.61
2023-05-19T10:23:50.374Z,30.02
2023-05-19T10:26:19.968Z,30.41
2023-05-19T10:28:50.163Z,30.72
2023-05-19T10:31:23.756Z,31.17
2023-05-19T10:34:30.631Z,31.52
2023-05-19T10:37:25.234Z,31.64
2023-05-19T10:39:53.850Z,31.81
2023-05-19T10:42:37.057Z,32.02
2023-05-19T10:45:17.957Z,32.30
2023-05-19T10:47:46.711Z,32.64
2023-05-19T10:50:15.764Z,32.80
2023-05-19T10:52:44.933Z,32.98
2023-05-19T10:55:17.898Z,33.07
2023-05-19T10:57:58.750Z,33.23
2023-05-19T11:00:28.481Z,33.45
2023-05-19T11:03:16.554Z,33.54
2023-05-19T11:05:51.132Z,33.86
2023-05-19T11:08:33.742Z,34.10
2023-05-19T11:11:17.794Z,34.24
2023-05-19T11:13:56.270Z,34.40
2023-05-19T11:16:29.736Z,34.75
2023-05-19T11:19:01.168Z,34.82
2023-05-19T11:21:44.065Z,34.99
2023-05-19T11:24:37.241Z,35.36
2023-05-19T11:27:23.108Z,35.15
2023-05-19T11:29:52.056Z,34.95
2023-05-19T11:32:22.059Z,35.08
2023-05-19T11:34:50.601Z,35.50
2023-05-19T11:37:19.061Z,35.83
2023-05-19T11:39:47.884Z,36.09
2023-05-19T11:42:16.723Z,36.34
2023-05-19T11:44:48.599Z,36.53
2023-05-19T11:47:17.584Z,36.45
2023-05-19T11:49:49.093Z,36.45
2023-05-19T11:52:17.410Z,36.68
2023-05-19T11:54:48.908Z,36.96
2023-05-19T11:57:17.649Z,37.17
2023-05-19T11:59:48.351Z,37.44
2023-05-19T12:02:26.333Z,37.70
2023-05-19T12:05:00.811Z,37.58
2023-05-19T12:07:32.130Z,37.76
2023-05-19T12:10:00.829Z,38.11
2023-05-19T12:12:29.930Z,38.37
2023-05-19T12:14:58.643Z,37.81
2023-05-19T12:17:28.196Z,37.64
2023-05-19T12:19:56.823Z,37.72
2023-05-19T12:22:25.612Z,37.53
2023-05-19T12:24:57.790Z,37.57
2023-05-19T12:27:29.146Z,37.85
2023-05-19T12:30:00.799Z,38.08
2023-05-19T12:32:29.336Z,38.54
2023-05-19T12:34:57.760Z,38.80
2023-05-19T12:37:33.526Z,38.96
2023-05-19T12:40:03.786Z,39.05
2023-05-19T12:42:32.238Z,39.22
2023-05-19T12:45:03.392Z,39.53
2023-05-19T12:47:36.308Z,39.73
2023-05-19T12:50:11.621Z,39.89
2023-05-19T12:52:48.288Z,40.22
2023-05-19T12:55:17.294Z,40.43
2023-05-19T12:57:51.643Z,40.23
2023-05-19T13:00:22.687Z,39.37
2023-05-19T13:03:07.972Z,38.40
2023-05-19T13:05:43.804Z,36.63
2023-05-19T13:08:21.713Z,35.08
2023-05-19T13:10:50.067Z,33.81
2023-05-19T13:13:18.561Z,32.66
2023-05-19T13:15:49.206Z,31.74
2023-05-19T13:18:18.594Z,31.00
2023-05-19T13:20:50.346Z,30.06
2023-05-19T13:23:19.464Z,29.18
2023-05-19T13:25:48.803Z,28.35
2023-05-19T13:28:17.982Z,27.60
2023-05-19T13:30:46.699Z,26.93
2023-05-19T13:33:15.317Z,26.47
2023-05-19T13:35:43.565Z,26.03
2023-05-19T13:38:12.016Z,25.61
2023-05-19T13:40:40.852Z,25.33
2023-05-19T13:43:10.015Z,25.05
2023-05-19T13:45:38.909Z,24.60
2023-05-19T13:48:07.819Z,24.33
2023-05-19T13:50:36.804Z,24.06
2023-05-19T13:53:05.602Z,23.89
2023-05-19T13:55:36.258Z,23.71
2023-05-19T13:58:04.414Z,23.69
2023-05-19T14:00:33.025Z,23.73
2023-05-19T14:03:01.768Z,23.92
2023-05-19T14:05:31.341Z,24.50
2023-05-19T14:08:01.266Z,25.76
2023-05-19T14:10:29.705Z,27.17
2023-05-19T14:15:32.833Z,29.03
2023-05-19T14:18:01.429Z,29.75
2023-05-19T14:20:30.596Z,30.02
2023-05-19T14:22:59.314Z,30.17
2023-05-19T14:25:27.704Z,29.89
2023-05-19T14:27:56.491Z,29.03
2023-05-19T14:30:25.181Z,28.20
2023-05-19T14:32:53.800Z,27.44
2023-05-19T14:35:23.292Z,26.81
2023-05-19T14:37:51.870Z,26.28
2023-05-19T14:40:20.281Z,25.88
2023-05-19T14:42:48.653Z,25.46
2023-05-19T14:45:18.353Z,25.14
2023-05-19T14:47:47.706Z,24.86
2023-05-19T14:50:16.449Z,24.59
2023-05-19T14:52:44.864Z,24.33
2023-05-19T14:55:13.038Z,24.15
2023-05-19T14:57:43.885Z,24.02
2023-05-19T15:00:15.311Z,23.92
2023-05-19T15:02:47.579Z,23.87
2023-05-19T15:05:16.484Z,23.87
2023-05-19T15:07:44.965Z,23.89
2023-05-19T15:10:13.414Z,24.52
2023-05-19T15:12:41.525Z,25.37
2023-05-19T15:15:10.623Z,26.17
2023-05-19T15:17:39.465Z,26.67
2023-05-19T15:20:08.418Z,26.38
2023-05-19T15:22:37.021Z,25.92
2023-05-19T15:25:06.096Z,25.51
2023-05-19T15:27:37.468Z,25.20
2023-05-19T15:30:06.631Z,25.03
2023-05-19T15:32:34.952Z,24.85
2023-05-19T15:35:03.448Z,24.65
2023-05-19T15:37:31.887Z,24.41
2023-05-19T15:40:00.446Z,24.14
2023-05-19T15:42:28.861Z,23.94
2023-05-19T15:44:57.324Z,23.88
2023-05-19T15:47:26.482Z,23.77
2023-05-19T15:49:55.182Z,23.54
2023-05-19T15:52:23.875Z,23.38
2023-05-19T15:54:52.360Z,23.31
2023-05-19T15:57:20.677Z,23.20
2023-05-19T15:59:49.127Z,23.08
2023-05-19T16:02:17.537Z,22.84
2023-05-19T16:04:46.116Z,22.59
2023-05-19T16:07:14.488Z,22.42
2023-05-19T16:09:42.918Z,22.24
2023-05-19T16:12:11.456Z,22.13
2023-05-19T16:14:39.848Z,22.09
2023-05-19T16:17:11.736Z,22.05
2023-05-19T16:19:40.200Z,22.04
2023-05-19T16:22:08.480Z,22.03
2023-05-19T16:24:37.272Z,22.03
2023-05-19T16:27:06.177Z,22.00
2023-05-19T16:29:34.774Z,21.99
2023-05-19T16:32:05.268Z,22.01
2023-05-19T16:34:33.810Z,21.99
2023-05-19T16:37:05.339Z,21.92
2023-05-19T16:39:38.325Z,21.82
2023-05-19T16:42:06.807Z,21.70
2023-05-19T16:44:35.346Z,21.55
2023-05-19T16:47:05.034Z,21.39
2023-05-19T16:49:34.338Z,21.29
2023-05-19T16:52:02.501Z,21.21
2023-05-19T16:54:30.615Z,21.15
2023-05-19T16:56:59.070Z,21.04
2023-05-19T16:59:27.446Z,21.01
2023-05-19T17:01:57.044Z,20.97
2023-05-19T17:04:25.403Z,20.87
2023-05-19T17:06:53.703Z,20.72
2023-05-19T17:09:25.356Z,20.58
2023-05-19T17:11:54.282Z,20.47
2023-05-19T17:14:22.680Z,20.38
2023-05-19T17:16:52.764Z,20.38
2023-05-19T17:19:21.681Z,20.44
2023-05-19T17:21:50.581Z,20.51
2023-05-19T17:24:19.477Z,20.54
2023-05-19T17:26:47.910Z,20.44
2023-05-19T17:29:16.360Z,20.29
2023-05-19T17:31:44.736Z,20.26
2023-05-19T17:34:12.915Z,20.23
2023-05-19T17:36:41.298Z,20.14
2023-05-19T17:39:09.576Z,20.01
2023-05-19T17:41:37.775Z,19.94
2023-05-19T17:44:06.998Z,19.93
2023-05-19T17:46:35.355Z,19.94
2023-05-19T17:49:05.718Z,19.92
2023-05-19T17:51:34.144Z,19.83
2023-05-19T17:54:03.110Z,19.68
2023-05-19T17:56:34.433Z,19.58
2023-05-19T17:59:03.413Z,19.55
2023-05-19T18:01:32.588Z,19.48
2023-05-19T18:04:01.613Z,19.49
2023-05-19T18:06:31.767Z,19.47
2023-05-19T18:09:03.559Z,19.40
2023-05-19T18:11:31.900Z,19.40
2023-05-19T18:14:00.366Z,19.42
2023-05-19T18:16:29.765Z,19.48
2023-05-19T18:18:58.300Z,19.55
2023-05-19T18:21:27.280Z,19.61
2023-05-19T18:23:55.857Z,19.63
2023-05-19T18:26:26.942Z,19.61
2023-05-19T18:28:57.015Z,19.55
2023-05-19T18:31:25.839Z,19.49
2023-05-19T18:33:54.396Z,19.42
2023-05-19T18:36:23.647Z,19.31
2023-05-19T18:38:51.903Z,19.24
2023-05-19T18:41:20.083Z,19.08
2023-05-19T18:43:48.861Z,18.96
2023-05-19T18:46:21.223Z,18.97
2023-05-19T18:48:50.891Z,18.96
2023-05-19T18:51:21.495Z,18.95
2023-05-19T18:53:50.958Z,18.97
2023-05-19T18:56:25.305Z,18.97
2023-05-19T18:59:05.827Z,18.96
2023-05-19T19:01:39.662Z,18.93
2023-05-19T19:04:08.099Z,18.86
2023-05-19T19:06:38.889Z,18.84
2023-05-19T19:09:10.103Z,18.77
2023-05-19T19:11:39.212Z,18.66
2023-05-19T19:14:07.906Z,18.56
2023-05-19T19:16:36.876Z,18.51
2023-05-19T19:19:05.290Z,18.49
2023-05-19T19:21:34.126Z,18.46
2023-05-19T19:24:02.839Z,18.42
2023-05-19T19:26:31.509Z,18.39
2023-05-19T19:29:02.417Z,18.35
2023-05-19T19:31:33.464Z,18.24
2023-05-19T19:34:05.900Z,18.01
2023-05-19T19:36:34.197Z,17.79
2023-05-19T19:39:07.076Z,17.65
2023-05-19T19:41:50.159Z,17.55
2023-05-19T19:44:18.764Z,17.50
2023-05-19T19:46:56.659Z,17.49
2023-05-19T19:49:28.111Z,17.47
2023-05-19T19:51:57.221Z,17.46
2023-05-19T19:54:25.900Z,17.45
2023-05-19T19:56:54.077Z,17.47
2023-05-19T19:59:25.275Z,17.56
2023-05-19T20:01:54.576Z,17.63
2023-05-19T20:04:23.189Z,17.71
2023-05-19T20:06:51.816Z,17.73
2023-05-19T20:09:20.008Z,17.70
2023-05-19T20:11:54.198Z,17.69
2023-05-19T20:14:22.389Z,17.70
2023-05-19T20:16:51.048Z,17.76
2023-05-19T20:19:22.102Z,17.82
2023-05-19T20:21:52.769Z,17.86
2023-05-19T20:24:21.705Z,17.90
2023-05-19T20:26:50.077Z,17.92
2023-05-19T20:29:18.834Z,17.93
2023-05-19T20:31:48.250Z,17.95
2023-05-19T20:34:16.683Z,17.93
2023-05-19T20:36:44.952Z,17.91
2023-05-19T20:39:13.419Z,17.92
2023-05-19T20:41:41.555Z,17.91
2023-05-19T20:44:12.387Z,17.85
2023-05-19T20:46:40.936Z,17.76
2023-05-19T20:49:09.729Z,17.71
2023-05-19T20:51:38.037Z,17.68
2023-05-19T20:54:07.600Z,17.67
2023-05-19T20:56:36.015Z,17.67
2023-05-19T20:59:04.277Z,17.64
2023-05-19T21:01:32.893Z,17.59
2023-05-19T21:04:01.477Z,17.49
2023-05-19T21:06:29.776Z,17.44
2023-05-19T21:08:58.006Z,17.42
2023-05-19T21:11:26.700Z,17.44
2023-05-19T21:13:56.430Z,17.44
2023-05-19T21:16:24.897Z,17.44
2023-05-19T21:18:54.844Z,17.37
2023-05-19T21:21:23.142Z,17.33
2023-05-19T21:23:51.976Z,17.31
2023-05-19T21:26:22.528Z,17.31
2023-05-19T21:28:51.302Z,17.32
2023-05-19T21:31:21.872Z,17.30
2023-05-19T21:33:52.496Z,17.30
2023-05-19T21:36:20.902Z,17.28
2023-05-19T21:38:49.263Z,17.26
2023-05-19T21:41:17.516Z,17.28
2023-05-19T21:43:47.221Z,17.26
2023-05-19T21:46:15.623Z,17.22
2023-05-19T21:48:44.145Z,17.20
2023-05-19T21:51:13.954Z,17.20
2023-05-19T21:53:42.149Z,17.24
2023-05-19T21:56:10.411Z,17.25
2023-05-19T21:58:38.799Z,17.24
2023-05-19T22:01:08.314Z,17.18
2023-05-19T22:03:38.477Z,17.18
2023-05-19T22:06:08.459Z,17.18
2023-05-19T22:08:36.589Z,17.17
2023-05-19T22:11:05.491Z,17.11
2023-05-19T22:13:34.228Z,17.01
2023-05-19T22:16:04.914Z,16.93
2023-05-19T22:18:33.277Z,16.86
2023-05-19T22:21:02.303Z,16.85
2023-05-19T22:23:31.358Z,16.78
2023-05-19T22:25:59.868Z,16.76
2023-05-19T22:28:28.416Z,16.72
2023-05-19T22:30:57.121Z,16.68
2023-05-19T22:33:25.280Z,16.62
2023-05-19T22:35:53.676Z,16.57
2023-05-19T22:38:22.157Z,16.56
2023-05-19T22:40:50.365Z,16.54
2023-05-19T22:43:18.828Z,16.49
2023-05-19T22:45:47.042Z,16.44
2023-05-19T22:48:16.417Z,16.37
2023-05-19T22:50:44.936Z,16.30
2023-05-19T22:53:13.203Z,16.21
2023-05-19T22:55:41.358Z,16.19
2023-05-19T22:58:09.493Z,16.17
2023-05-19T23:00:37.722Z,16.16
2023-05-19T23:03:06.191Z,16.13
2023-05-19T23:05:34.831Z,16.11
2023-05-19T23:08:03.622Z,16.07
2023-05-19T23:10:31.971Z,16.03
2023-05-19T23:13:00.184Z,15.97
2023-05-19T23:15:28.573Z,15.92
2023-05-19T23:17:56.750Z,15.90
2023-05-19T23:20:25.165Z,15.92
2023-05-19T23:22:53.607Z,15.97
2023-05-19T23:25:21.975Z,15.96
2023-05-19T23:27:53.304Z,15.96
2023-05-19T23:30:21.906Z,15.93
2023-05-19T23:32:50.209Z,15.83
2023-05-19T23:35:20.167Z,15.75
2023-05-19T23:37:48.449Z,15.69
2023-05-19T23:40:16.995Z,15.60
2023-05-19T23:42:45.142Z,15.52
2023-05-19T23:45:13.351Z,15.44
2023-05-19T23:47:41.940Z,15.39
2023-05-19T23:50:10.944Z,15.33
2023-05-19T23:52:39.218Z,15.27
2023-05-19T23:55:08.598Z,15.24
2023-05-19T23:57:36.738Z,15.24
